sensor_id;sensor_type;location;lat;lon;timestamp;P1;durP1;ratioP1;P2;durP2;ratioP2
5937;SDS011;2994;51.220;4.412;2023-05-24T00:01:04;9.50;;;3.03;;
5937;SDS011;2994;51.220;4.412;2023-05-24T00:03:31;6.10;;;3.03;;
5937;SDS011;2994;51.220;4.412;2023-05-24T00:05:59;7.50;;;2.90;;
5937;SDS011;2994;51.220;4.412;2023-05-24T00:08:25;5.60;;;3.23;;
5937;SDS011;2994;51.220;4.412;2023-05-24T00:10:50;6.30;;;3.70;;
5937;SDS011;2994;51.220;4.412;2023-05-24T00:13:16;13.10;;;4.57;;
5937;SDS011;2994;51.220;4.412;2023-05-24T00:15:42;4.90;;;3.30;;
5937;SDS011;2994;51.220;4.412;2023-05-24T00:18:07;4.60;;;3.13;;
5937;SDS011;2994;51.220;4.412;2023-05-24T00:20:33;5.93;;;3.57;;
5937;SDS011;2994;51.220;4.412;2023-05-24T00:22:58;4.43;;;2.83;;
5937;SDS011;2994;51.220;4.412;2023-05-24T00:25:24;8.83;;;3.60;;
5937;SDS011;2994;51.220;4.412;2023-05-24T00:27:49;8.47;;;3.90;;
5937;SDS011;2994;51.220;4.412;2023-05-24T00:30:14;7.07;;;3.40;;
5937;SDS011;2994;51.220;4.412;2023-05-24T00:32:40;6.40;;;4.33;;
5937;SDS011;2994;51.220;4.412;2023-05-24T00:35:05;10.23;;;4.00;;
5937;SDS011;2994;51.220;4.412;2023-05-24T00:37:31;6.40;;;3.13;;
5937;SDS011;2994;51.220;4.412;2023-05-24T00:39:57;6.30;;;2.60;;
5937;SDS011;2994;51.220;4.412;2023-05-24T00:42:22;6.53;;;3.00;;
5937;SDS011;2994;51.220;4.412;2023-05-24T00:44:48;8.30;;;3.37;;
5937;SDS011;2994;51.220;4.412;2023-05-24T00:47:14;5.77;;;2.97;;
5937;SDS011;2994;51.220;4.412;2023-05-24T00:49:40;5.90;;;2.97;;
5937;SDS011;2994;51.220;4.412;2023-05-24T00:52:05;7.27;;;3.23;;
5937;SDS011;2994;51.220;4.412;2023-05-24T00:54:32;10.13;;;3.53;;
5937;SDS011;2994;51.220;4.412;2023-05-24T00:56:58;6.63;;;3.60;;
5937;SDS011;2994;51.220;4.412;2023-05-24T00:59:25;7.00;;;3.77;;
5937;SDS011;2994;51.220;4.412;2023-05-24T01:01:50;6.27;;;3.70;;
5937;SDS011;2994;51.220;4.412;2023-05-24T01:04:16;7.43;;;3.60;;
5937;SDS011;2994;51.220;4.412;2023-05-24T01:07:05;6.43;;;4.07;;
5937;SDS011;2994;51.220;4.412;2023-05-24T01:15:27;9.10;;;3.90;;
5937;SDS011;2994;51.220;4.412;2023-05-24T01:18:33;7.73;;;3.43;;
5937;SDS011;2994;51.220;4.412;2023-05-24T01:21:13;8.30;;;3.60;;
5937;SDS011;2994;51.220;4.412;2023-05-24T01:27:05;5.70;;;3.03;;
5937;SDS011;2994;51.220;4.412;2023-05-24T01:29:32;5.40;;;2.87;;
5937;SDS011;2994;51.220;4.412;2023-05-24T01:31:59;5.87;;;4.20;;
5937;SDS011;2994;51.220;4.412;2023-05-24T01:34:25;8.10;;;3.70;;
5937;SDS011;2994;51.220;4.412;2023-05-24T01:36:51;5.80;;;3.40;;
5937;SDS011;2994;51.220;4.412;2023-05-24T01:39:16;7.50;;;2.90;;
5937;SDS011;2994;51.220;4.412;2023-05-24T01:44:27;4.73;;;3.40;;
5937;SDS011;2994;51.220;4.412;2023-05-24T01:47:00;8.60;;;4.20;;
5937;SDS011;2994;51.220;4.412;2023-05-24T01:49:34;9.33;;;3.50;;
5937;SDS011;2994;51.220;4.412;2023-05-24T01:52:07;8.07;;;3.73;;
5937;SDS011;2994;51.220;4.412;2023-05-24T01:54:37;6.33;;;4.30;;
5937;SDS011;2994;51.220;4.412;2023-05-24T01:57:06;5.63;;;3.50;;
5937;SDS011;2994;51.220;4.412;2023-05-24T01:59:33;6.77;;;3.83;;
5937;SDS011;2994;51.220;4.412;2023-05-24T02:02:00;5.87;;;3.13;;
5937;SDS011;2994;51.220;4.412;2023-05-24T02:04:26;7.97;;;3.97;;
5937;SDS011;2994;51.220;4.412;2023-05-24T02:06:52;7.33;;;3.07;;
5937;SDS011;2994;51.220;4.412;2023-05-24T02:09:17;6.80;;;2.93;;
5937;SDS011;2994;51.220;4.412;2023-05-24T02:11:42;11.07;;;3.90;;
5937;SDS011;2994;51.220;4.412;2023-05-24T02:14:08;7.43;;;3.40;;
5937;SDS011;2994;51.220;4.412;2023-05-24T02:16:33;7.80;;;3.57;;
5937;SDS011;2994;51.220;4.412;2023-05-24T02:19:06;11.20;;;3.47;;
5937;SDS011;2994;51.220;4.412;2023-05-24T02:21:33;9.53;;;3.47;;
5937;SDS011;2994;51.220;4.412;2023-05-24T02:23:58;5.83;;;3.37;;
5937;SDS011;2994;51.220;4.412;2023-05-24T02:26:24;8.70;;;4.27;;
5937;SDS011;2994;51.220;4.412;2023-05-24T02:28:50;8.80;;;3.57;;
5937;SDS011;2994;51.220;4.412;2023-05-24T02:31:15;9.07;;;4.53;;
5937;SDS011;2994;51.220;4.412;2023-05-24T02:33:41;7.70;;;4.20;;
5937;SDS011;2994;51.220;4.412;2023-05-24T02:36:06;7.20;;;4.40;;
5937;SDS011;2994;51.220;4.412;2023-05-24T02:38:32;6.63;;;3.40;;
5937;SDS011;2994;51.220;4.412;2023-05-24T02:40:57;5.73;;;3.70;;
5937;SDS011;2994;51.220;4.412;2023-05-24T02:43:22;11.43;;;4.23;;
5937;SDS011;2994;51.220;4.412;2023-05-24T02:45:51;10.60;;;4.13;;
5937;SDS011;2994;51.220;4.412;2023-05-24T02:48:16;8.13;;;3.70;;
5937;SDS011;2994;51.220;4.412;2023-05-24T02:50:42;5.93;;;3.57;;
5937;SDS011;2994;51.220;4.412;2023-05-24T02:53:07;10.50;;;3.83;;
5937;SDS011;2994;51.220;4.412;2023-05-24T02:55:33;8.67;;;3.87;;
5937;SDS011;2994;51.220;4.412;2023-05-24T02:57:58;5.53;;;3.30;;
5937;SDS011;2994;51.220;4.412;2023-05-24T03:00:25;10.40;;;4.33;;
5937;SDS011;2994;51.220;4.412;2023-05-24T03:02:50;8.00;;;4.83;;
5937;SDS011;2994;51.220;4.412;2023-05-24T03:05:16;7.03;;;3.50;;
5937;SDS011;2994;51.220;4.412;2023-05-24T03:07:42;8.60;;;3.80;;
5937;SDS011;2994;51.220;4.412;2023-05-24T03:10:07;9.73;;;4.40;;
5937;SDS011;2994;51.220;4.412;2023-05-24T03:12:33;5.97;;;3.73;;
5937;SDS011;2994;51.220;4.412;2023-05-24T03:14:59;8.20;;;4.50;;
5937;SDS011;2994;51.220;4.412;2023-05-24T03:17:24;11.10;;;4.20;;
5937;SDS011;2994;51.220;4.412;2023-05-24T03:19:50;6.03;;;4.40;;
5937;SDS011;2994;51.220;4.412;2023-05-24T03:22:16;7.93;;;3.47;;
5937;SDS011;2994;51.220;4.412;2023-05-24T03:24:42;6.63;;;3.67;;
5937;SDS011;2994;51.220;4.412;2023-05-24T03:27:07;4.80;;;3.50;;
5937;SDS011;2994;51.220;4.412;2023-05-24T03:29:33;7.23;;;3.60;;
5937;SDS011;2994;51.220;4.412;2023-05-24T03:31:58;7.60;;;4.27;;
5937;SDS011;2994;51.220;4.412;2023-05-24T03:34:24;6.17;;;3.67;;
5937;SDS011;2994;51.220;4.412;2023-05-24T03:36:49;8.73;;;3.57;;
5937;SDS011;2994;51.220;4.412;2023-05-24T03:39:15;7.33;;;4.70;;
5937;SDS011;2994;51.220;4.412;2023-05-24T03:41:41;8.33;;;3.87;;
5937;SDS011;2994;51.220;4.412;2023-05-24T03:44:06;7.53;;;3.87;;
5937;SDS011;2994;51.220;4.412;2023-05-24T03:46:32;7.40;;;3.63;;
5937;SDS011;2994;51.220;4.412;2023-05-24T03:48:57;11.50;;;3.70;;
5937;SDS011;2994;51.220;4.412;2023-05-24T03:51:23;5.77;;;4.20;;
5937;SDS011;2994;51.220;4.412;2023-05-24T03:53:53;6.43;;;3.43;;
5937;SDS011;2994;51.220;4.412;2023-05-24T03:56:21;8.23;;;4.57;;
5937;SDS011;2994;51.220;4.412;2023-05-24T03:58:48;9.53;;;4.17;;
5937;SDS011;2994;51.220;4.412;2023-05-24T04:01:16;5.27;;;3.50;;
5937;SDS011;2994;51.220;4.412;2023-05-24T04:03:42;7.97;;;3.43;;
5937;SDS011;2994;51.220;4.412;2023-05-24T04:06:10;7.80;;;4.70;;
5937;SDS011;2994;51.220;4.412;2023-05-24T04:08:36;6.60;;;3.57;;
5937;SDS011;2994;51.220;4.412;2023-05-24T04:11:01;11.73;;;5.33;;
5937;SDS011;2994;51.220;4.412;2023-05-24T04:13:27;8.77;;;4.13;;
5937;SDS011;2994;51.220;4.412;2023-05-24T04:15:52;8.83;;;4.17;;
5937;SDS011;2994;51.220;4.412;2023-05-24T04:18:18;9.50;;;3.67;;
5937;SDS011;2994;51.220;4.412;2023-05-24T04:20:43;8.23;;;4.80;;
5937;SDS011;2994;51.220;4.412;2023-05-24T04:23:09;9.10;;;4.60;;
5937;SDS011;2994;51.220;4.412;2023-05-24T04:25:34;9.60;;;4.60;;
5937;SDS011;2994;51.220;4.412;2023-05-24T04:28:00;9.73;;;4.17;;
5937;SDS011;2994;51.220;4.412;2023-05-24T04:30:27;11.63;;;5.37;;
5937;SDS011;2994;51.220;4.412;2023-05-24T04:32:54;6.73;;;4.03;;
5937;SDS011;2994;51.220;4.412;2023-05-24T04:35:20;8.97;;;4.67;;
5937;SDS011;2994;51.220;4.412;2023-05-24T04:37:46;10.97;;;3.80;;
5937;SDS011;2994;51.220;4.412;2023-05-24T04:40:13;6.73;;;4.27;;
5937;SDS011;2994;51.220;4.412;2023-05-24T04:42:40;9.40;;;4.00;;
5937;SDS011;2994;51.220;4.412;2023-05-24T04:45:06;9.50;;;4.30;;
5937;SDS011;2994;51.220;4.412;2023-05-24T04:47:32;7.77;;;4.03;;
5937;SDS011;2994;51.220;4.412;2023-05-24T04:49:57;6.40;;;3.80;;
5937;SDS011;2994;51.220;4.412;2023-05-24T04:52:23;12.13;;;5.00;;
5937;SDS011;2994;51.220;4.412;2023-05-24T04:54:48;8.07;;;4.70;;
5937;SDS011;2994;51.220;4.412;2023-05-24T04:57:15;7.60;;;4.10;;
5937;SDS011;2994;51.220;4.412;2023-05-24T04:59:40;7.00;;;3.70;;
5937;SDS011;2994;51.220;4.412;2023-05-24T05:02:06;12.80;;;4.80;;
5937;SDS011;2994;51.220;4.412;2023-05-24T05:04:31;8.23;;;4.10;;
5937;SDS011;2994;51.220;4.412;2023-05-24T05:06:57;7.23;;;3.80;;
5937;SDS011;2994;51.220;4.412;2023-05-24T05:09:22;6.37;;;3.40;;
5937;SDS011;2994;51.220;4.412;2023-05-24T05:11:48;6.80;;;3.70;;
5937;SDS011;2994;51.220;4.412;2023-05-24T05:14:14;9.53;;;4.60;;
5937;SDS011;2994;51.220;4.412;2023-05-24T05:16:40;9.27;;;3.63;;
5937;SDS011;2994;51.220;4.412;2023-05-24T05:19:06;7.80;;;4.30;;
5937;SDS011;2994;51.220;4.412;2023-05-24T05:21:32;6.60;;;4.03;;
5937;SDS011;2994;51.220;4.412;2023-05-24T05:23:58;7.63;;;4.70;;
5937;SDS011;2994;51.220;4.412;2023-05-24T05:26:28;7.90;;;4.03;;
5937;SDS011;2994;51.220;4.412;2023-05-24T05:28:54;13.50;;;4.60;;
5937;SDS011;2994;51.220;4.412;2023-05-24T05:31:20;11.00;;;4.90;;
5937;SDS011;2994;51.220;4.412;2023-05-24T05:33:46;8.97;;;5.30;;
5937;SDS011;2994;51.220;4.412;2023-05-24T05:36:11;6.50;;;4.20;;
5937;SDS011;2994;51.220;4.412;2023-05-24T05:38:37;12.60;;;5.60;;
5937;SDS011;2994;51.220;4.412;2023-05-24T05:41:02;10.97;;;4.03;;
5937;SDS011;2994;51.220;4.412;2023-05-24T05:43:27;12.47;;;5.50;;
5937;SDS011;2994;51.220;4.412;2023-05-24T05:45:53;7.53;;;3.50;;
5937;SDS011;2994;51.220;4.412;2023-05-24T05:48:20;11.00;;;3.97;;
5937;SDS011;2994;51.220;4.412;2023-05-24T05:50:45;5.50;;;3.17;;
5937;SDS011;2994;51.220;4.412;2023-05-24T05:53:11;6.70;;;4.23;;
5937;SDS011;2994;51.220;4.412;2023-05-24T05:55:36;7.40;;;4.33;;
5937;SDS011;2994;51.220;4.412;2023-05-24T05:58:05;10.30;;;4.30;;
5937;SDS011;2994;51.220;4.412;2023-05-24T06:00:30;8.47;;;4.10;;
5937;SDS011;2994;51.220;4.412;2023-05-24T06:02:56;7.33;;;4.13;;
5937;SDS011;2994;51.220;4.412;2023-05-24T06:05:21;5.37;;;4.03;;
5937;SDS011;2994;51.220;4.412;2023-05-24T06:07:46;6.13;;;4.00;;
5937;SDS011;2994;51.220;4.412;2023-05-24T06:10:12;6.43;;;4.10;;
5937;SDS011;2994;51.220;4.412;2023-05-24T06:12:37;8.57;;;3.37;;
5937;SDS011;2994;51.220;4.412;2023-05-24T06:15:04;6.60;;;4.40;;
5937;SDS011;2994;51.220;4.412;2023-05-24T06:17:32;8.70;;;3.87;;
5937;SDS011;2994;51.220;4.412;2023-05-24T06:19:58;9.30;;;4.17;;
5937;SDS011;2994;51.220;4.412;2023-05-24T06:22:24;9.73;;;3.70;;
5937;SDS011;2994;51.220;4.412;2023-05-24T06:24:52;9.17;;;4.20;;
5937;SDS011;2994;51.220;4.412;2023-05-24T06:27:17;8.73;;;4.30;;
5937;SDS011;2994;51.220;4.412;2023-05-24T06:29:43;11.03;;;5.27;;
5937;SDS011;2994;51.220;4.412;2023-05-24T06:32:08;11.53;;;5.40;;
5937;SDS011;2994;51.220;4.412;2023-05-24T06:34:34;8.00;;;4.20;;
5937;SDS011;2994;51.220;4.412;2023-05-24T06:36:59;11.37;;;4.70;;
5937;SDS011;2994;51.220;4.412;2023-05-24T06:39:26;13.00;;;4.40;;
5937;SDS011;2994;51.220;4.412;2023-05-24T06:41:52;13.87;;;4.80;;
5937;SDS011;2994;51.220;4.412;2023-05-24T06:44:18;10.97;;;4.60;;
5937;SDS011;2994;51.220;4.412;2023-05-24T06:46:47;6.83;;;4.17;;
5937;SDS011;2994;51.220;4.412;2023-05-24T06:49:13;8.73;;;5.07;;
5937;SDS011;2994;51.220;4.412;2023-05-24T06:51:38;9.07;;;3.83;;
5937;SDS011;2994;51.220;4.412;2023-05-24T06:54:06;4.77;;;3.20;;
5937;SDS011;2994;51.220;4.412;2023-05-24T06:56:32;5.77;;;3.70;;
5937;SDS011;2994;51.220;4.412;2023-05-24T06:58:58;9.23;;;4.57;;
5937;SDS011;2994;51.220;4.412;2023-05-24T07:01:23;8.47;;;4.40;;
5937;SDS011;2994;51.220;4.412;2023-05-24T07:03:49;8.83;;;4.50;;
5937;SDS011;2994;51.220;4.412;2023-05-24T07:06:14;8.43;;;5.23;;
5937;SDS011;2994;51.220;4.412;2023-05-24T07:08:40;7.80;;;4.83;;
5937;SDS011;2994;51.220;4.412;2023-05-24T07:11:06;12.73;;;5.23;;
5937;SDS011;2994;51.220;4.412;2023-05-24T07:13:32;8.20;;;5.40;;
5937;SDS011;2994;51.220;4.412;2023-05-24T07:15:57;9.73;;;5.03;;
5937;SDS011;2994;51.220;4.412;2023-05-24T07:18:23;14.87;;;7.53;;
5937;SDS011;2994;51.220;4.412;2023-05-24T07:20:49;11.43;;;6.07;;
5937;SDS011;2994;51.220;4.412;2023-05-24T07:23:14;11.90;;;6.23;;
5937;SDS011;2994;51.220;4.412;2023-05-24T07:25:39;10.33;;;6.93;;
5937;SDS011;2994;51.220;4.412;2023-05-24T07:28:05;11.20;;;5.87;;
5937;SDS011;2994;51.220;4.412;2023-05-24T07:30:31;8.50;;;5.50;;
5937;SDS011;2994;51.220;4.412;2023-05-24T07:32:56;11.27;;;6.20;;
5937;SDS011;2994;51.220;4.412;2023-05-24T07:35:21;12.13;;;6.80;;
5937;SDS011;2994;51.220;4.412;2023-05-24T07:37:48;13.90;;;7.37;;
5937;SDS011;2994;51.220;4.412;2023-05-24T07:40:16;9.63;;;5.83;;
5937;SDS011;2994;51.220;4.412;2023-05-24T07:42:42;11.40;;;5.43;;
5937;SDS011;2994;51.220;4.412;2023-05-24T07:45:07;11.63;;;6.70;;
5937;SDS011;2994;51.220;4.412;2023-05-24T07:47:34;11.07;;;5.83;;
5937;SDS011;2994;51.220;4.412;2023-05-24T07:50:00;12.10;;;6.70;;
5937;SDS011;2994;51.220;4.412;2023-05-24T07:52:25;12.10;;;6.53;;
5937;SDS011;2994;51.220;4.412;2023-05-24T07:54:51;14.80;;;7.20;;
5937;SDS011;2994;51.220;4.412;2023-05-24T07:57:17;9.40;;;7.03;;
5937;SDS011;2994;51.220;4.412;2023-05-24T07:59:44;9.63;;;5.27;;
5937;SDS011;2994;51.220;4.412;2023-05-24T08:02:09;12.97;;;5.47;;
5937;SDS011;2994;51.220;4.412;2023-05-24T08:04:35;10.43;;;6.47;;
5937;SDS011;2994;51.220;4.412;2023-05-24T08:07:02;9.70;;;5.67;;
5937;SDS011;2994;51.220;4.412;2023-05-24T08:09:29;11.07;;;5.57;;
5937;SDS011;2994;51.220;4.412;2023-05-24T08:11:57;14.20;;;7.37;;
5937;SDS011;2994;51.220;4.412;2023-05-24T08:14:23;8.70;;;5.30;;
5937;SDS011;2994;51.220;4.412;2023-05-24T08:16:48;14.70;;;8.07;;
5937;SDS011;2994;51.220;4.412;2023-05-24T08:19:13;8.80;;;5.23;;
5937;SDS011;2994;51.220;4.412;2023-05-24T08:21:39;9.90;;;6.23;;
5937;SDS011;2994;51.220;4.412;2023-05-24T08:24:09;9.90;;;6.40;;
5937;SDS011;2994;51.220;4.412;2023-05-24T08:26:35;11.33;;;5.63;;
5937;SDS011;2994;51.220;4.412;2023-05-24T08:29:00;6.80;;;4.93;;
5937;SDS011;2994;51.220;4.412;2023-05-24T08:31:26;5.30;;;3.90;;
5937;SDS011;2994;51.220;4.412;2023-05-24T08:33:52;8.30;;;4.03;;
5937;SDS011;2994;51.220;4.412;2023-05-24T08:36:18;6.60;;;3.57;;
5937;SDS011;2994;51.220;4.412;2023-05-24T08:38:44;13.53;;;4.57;;
5937;SDS011;2994;51.220;4.412;2023-05-24T08:41:10;9.70;;;5.20;;
5937;SDS011;2994;51.220;4.412;2023-05-24T08:43:36;10.10;;;5.40;;
5937;SDS011;2994;51.220;4.412;2023-05-24T08:46:02;6.77;;;4.70;;
5937;SDS011;2994;51.220;4.412;2023-05-24T08:48:29;4.83;;;3.83;;
5937;SDS011;2994;51.220;4.412;2023-05-24T08:50:56;8.40;;;4.37;;
5937;SDS011;2994;51.220;4.412;2023-05-24T08:53:22;11.57;;;4.60;;
5937;SDS011;2994;51.220;4.412;2023-05-24T08:55:48;10.80;;;4.97;;
5937;SDS011;2994;51.220;4.412;2023-05-24T08:58:17;4.90;;;4.10;;
5937;SDS011;2994;51.220;4.412;2023-05-24T09:00:43;6.93;;;3.80;;
5937;SDS011;2994;51.220;4.412;2023-05-24T09:03:08;6.90;;;3.97;;
5937;SDS011;2994;51.220;4.412;2023-05-24T09:05:35;6.37;;;3.93;;
5937;SDS011;2994;51.220;4.412;2023-05-24T09:08:01;8.70;;;4.10;;
5937;SDS011;2994;51.220;4.412;2023-05-24T09:10:28;5.93;;;3.80;;
5937;SDS011;2994;51.220;4.412;2023-05-24T09:12:57;6.70;;;4.03;;
5937;SDS011;2994;51.220;4.412;2023-05-24T09:15:26;8.73;;;5.10;;
5937;SDS011;2994;51.220;4.412;2023-05-24T09:17:52;9.77;;;5.23;;
5937;SDS011;2994;51.220;4.412;2023-05-24T09:20:18;8.23;;;4.90;;
5937;SDS011;2994;51.220;4.412;2023-05-24T09:22:45;7.27;;;4.57;;
5937;SDS011;2994;51.220;4.412;2023-05-24T09:25:16;10.13;;;5.13;;
5937;SDS011;2994;51.220;4.412;2023-05-24T09:27:47;7.13;;;4.40;;
5937;SDS011;2994;51.220;4.412;2023-05-24T09:30:14;7.27;;;5.40;;
5937;SDS011;2994;51.220;4.412;2023-05-24T09:32:40;9.23;;;5.17;;
5937;SDS011;2994;51.220;4.412;2023-05-24T09:35:17;9.27;;;5.10;;
5937;SDS011;2994;51.220;4.412;2023-05-24T09:37:43;12.30;;;7.67;;
5937;SDS011;2994;51.220;4.412;2023-05-24T09:40:17;9.17;;;4.40;;
5937;SDS011;2994;51.220;4.412;2023-05-24T09:42:46;8.23;;;4.73;;
5937;SDS011;2994;51.220;4.412;2023-05-24T09:45:15;9.10;;;5.47;;
5937;SDS011;2994;51.220;4.412;2023-05-24T09:47:41;6.67;;;4.70;;
5937;SDS011;2994;51.220;4.412;2023-05-24T09:50:12;8.80;;;5.20;;
5937;SDS011;2994;51.220;4.412;2023-05-24T09:52:40;8.93;;;5.60;;
5937;SDS011;2994;51.220;4.412;2023-05-24T09:55:13;9.43;;;5.87;;
5937;SDS011;2994;51.220;4.412;2023-05-24T09:57:43;5.20;;;4.70;;
5937;SDS011;2994;51.220;4.412;2023-05-24T10:00:09;9.73;;;6.13;;
5937;SDS011;2994;51.220;4.412;2023-05-24T10:02:38;10.33;;;5.90;;
5937;SDS011;2994;51.220;4.412;2023-05-24T10:05:04;10.83;;;6.03;;
5937;SDS011;2994;51.220;4.412;2023-05-24T10:07:31;7.20;;;5.30;;
5937;SDS011;2994;51.220;4.412;2023-05-24T10:09:58;9.27;;;5.60;;
5937;SDS011;2994;51.220;4.412;2023-05-24T10:12:25;6.60;;;4.80;;
5937;SDS011;2994;51.220;4.412;2023-05-24T10:14:52;11.17;;;5.80;;
5937;SDS011;2994;51.220;4.412;2023-05-24T10:17:21;10.13;;;5.77;;
5937;SDS011;2994;51.220;4.412;2023-05-24T10:19:46;7.60;;;5.17;;
5937;SDS011;2994;51.220;4.412;2023-05-24T10:22:12;5.83;;;5.03;;
5937;SDS011;2994;51.220;4.412;2023-05-24T10:24:43;9.53;;;4.97;;
5937;SDS011;2994;51.220;4.412;2023-05-24T10:27:12;9.60;;;4.97;;
5937;SDS011;2994;51.220;4.412;2023-05-24T10:32:15;13.40;;;5.37;;
5937;SDS011;2994;51.220;4.412;2023-05-24T10:34:43;6.23;;;3.50;;
5937;SDS011;2994;51.220;4.412;2023-05-24T10:37:10;6.10;;;4.30;;
5937;SDS011;2994;51.220;4.412;2023-05-24T10:39:36;8.63;;;4.23;;
5937;SDS011;2994;51.220;4.412;2023-05-24T10:42:02;10.73;;;4.80;;
5937;SDS011;2994;51.220;4.412;2023-05-24T10:44:30;7.50;;;5.20;;
5937;SDS011;2994;51.220;4.412;2023-05-24T10:47:12;10.40;;;6.20;;
5937;SDS011;2994;51.220;4.412;2023-05-24T10:49:46;8.97;;;5.00;;
5937;SDS011;2994;51.220;4.412;2023-05-24T10:52:16;9.83;;;4.90;;
5937;SDS011;2994;51.220;4.412;2023-05-24T10:57:32;5.73;;;3.83;;
5937;SDS011;2994;51.220;4.412;2023-05-24T11:02:49;8.70;;;5.57;;
5937;SDS011;2994;51.220;4.412;2023-05-24T11:05:16;10.20;;;4.00;;
5937;SDS011;2994;51.220;4.412;2023-05-24T11:07:42;7.27;;;4.90;;
5937;SDS011;2994;51.220;4.412;2023-05-24T11:10:08;9.83;;;4.97;;
5937;SDS011;2994;51.220;4.412;2023-05-24T11:12:39;6.80;;;5.00;;
5937;SDS011;2994;51.220;4.412;2023-05-24T11:15:07;10.07;;;5.27;;
5937;SDS011;2994;51.220;4.412;2023-05-24T11:18:12;8.37;;;5.23;;
5937;SDS011;2994;51.220;4.412;2023-05-24T11:20:37;8.60;;;4.93;;
5937;SDS011;2994;51.220;4.412;2023-05-24T11:23:07;11.30;;;5.67;;
5937;SDS011;2994;51.220;4.412;2023-05-24T11:25:40;11.97;;;5.30;;
5937;SDS011;2994;51.220;4.412;2023-05-24T11:28:07;8.10;;;4.43;;
5937;SDS011;2994;51.220;4.412;2023-05-24T11:30:44;7.63;;;4.80;;
5937;SDS011;2994;51.220;4.412;2023-05-24T11:35:43;6.77;;;5.07;;
5937;SDS011;2994;51.220;4.412;2023-05-24T11:38:16;12.20;;;4.87;;
5937;SDS011;2994;51.220;4.412;2023-05-24T11:40:43;7.47;;;4.33;;
5937;SDS011;2994;51.220;4.412;2023-05-24T11:43:19;8.10;;;5.03;;
5937;SDS011;2994;51.220;4.412;2023-05-24T11:45:48;11.00;;;5.87;;
5937;SDS011;2994;51.220;4.412;2023-05-24T11:48:16;12.20;;;5.13;;
5937;SDS011;2994;51.220;4.412;2023-05-24T11:50:44;8.03;;;4.83;;
5937;SDS011;2994;51.220;4.412;2023-05-24T11:53:13;7.53;;;4.87;;
5937;SDS011;2994;51.220;4.412;2023-05-24T11:55:40;9.97;;;5.00;;
5937;SDS011;2994;51.220;4.412;2023-05-24T12:00:41;9.67;;;4.80;;
5937;SDS011;2994;51.220;4.412;2023-05-24T12:03:07;5.97;;;3.73;;
5937;SDS011;2994;51.220;4.412;2023-05-24T12:05:34;7.93;;;4.20;;
5937;SDS011;2994;51.220;4.412;2023-05-24T12:08:06;7.13;;;4.30;;
5937;SDS011;2994;51.220;4.412;2023-05-24T12:10:35;9.03;;;3.70;;
5937;SDS011;2994;51.220;4.412;2023-05-24T12:13:02;5.70;;;3.97;;
5937;SDS011;2994;51.220;4.412;2023-05-24T12:15:28;8.07;;;4.00;;
5937;SDS011;2994;51.220;4.412;2023-05-24T12:17:55;7.13;;;4.13;;
5937;SDS011;2994;51.220;4.412;2023-05-24T12:20:25;6.77;;;4.50;;
5937;SDS011;2994;51.220;4.412;2023-05-24T12:22:52;5.30;;;3.93;;
5937;SDS011;2994;51.220;4.412;2023-05-24T12:25:18;7.57;;;3.47;;
5937;SDS011;2994;51.220;4.412;2023-05-24T12:27:52;9.77;;;4.17;;
5937;SDS011;2994;51.220;4.412;2023-05-24T12:30:23;5.80;;;4.33;;
5937;SDS011;2994;51.220;4.412;2023-05-24T12:32:49;5.53;;;3.90;;
5937;SDS011;2994;51.220;4.412;2023-05-24T12:35:16;8.83;;;4.03;;
5937;SDS011;2994;51.220;4.412;2023-05-24T12:37:42;8.63;;;4.50;;
5937;SDS011;2994;51.220;4.412;2023-05-24T12:40:19;9.80;;;3.83;;
5937;SDS011;2994;51.220;4.412;2023-05-24T12:42:49;10.57;;;4.60;;
5937;SDS011;2994;51.220;4.412;2023-05-24T12:45:18;5.17;;;3.60;;
5937;SDS011;2994;51.220;4.412;2023-05-24T12:47:49;6.63;;;3.60;;
5937;SDS011;2994;51.220;4.412;2023-05-24T12:50:19;8.43;;;4.20;;
5937;SDS011;2994;51.220;4.412;2023-05-24T12:52:45;10.67;;;4.63;;
5937;SDS011;2994;51.220;4.412;2023-05-24T12:55:12;5.60;;;3.93;;
5937;SDS011;2994;51.220;4.412;2023-05-24T12:57:41;6.87;;;3.87;;
5937;SDS011;2994;51.220;4.412;2023-05-24T13:00:08;7.87;;;4.17;;
5937;SDS011;2994;51.220;4.412;2023-05-24T13:02:35;9.67;;;4.47;;
5937;SDS011;2994;51.220;4.412;2023-05-24T13:05:01;7.17;;;4.57;;
5937;SDS011;2994;51.220;4.412;2023-05-24T13:07:28;8.57;;;4.20;;
5937;SDS011;2994;51.220;4.412;2023-05-24T13:09:54;8.10;;;4.73;;
5937;SDS011;2994;51.220;4.412;2023-05-24T13:12:19;7.00;;;4.43;;
5937;SDS011;2994;51.220;4.412;2023-05-24T13:14:45;6.80;;;3.93;;
5937;SDS011;2994;51.220;4.412;2023-05-24T13:17:11;7.50;;;4.63;;
5937;SDS011;2994;51.220;4.412;2023-05-24T13:19:36;5.67;;;3.77;;
5937;SDS011;2994;51.220;4.412;2023-05-24T13:22:02;6.30;;;4.00;;
5937;SDS011;2994;51.220;4.412;2023-05-24T13:24:28;6.83;;;3.60;;
5937;SDS011;2994;51.220;4.412;2023-05-24T13:26:56;7.13;;;3.80;;
5937;SDS011;2994;51.220;4.412;2023-05-24T13:29:24;9.77;;;3.70;;
5937;SDS011;2994;51.220;4.412;2023-05-24T13:31:50;5.20;;;3.53;;
5937;SDS011;2994;51.220;4.412;2023-05-24T13:34:16;5.53;;;3.70;;
5937;SDS011;2994;51.220;4.412;2023-05-24T13:36:44;5.87;;;3.10;;
5937;SDS011;2994;51.220;4.412;2023-05-24T13:39:10;7.03;;;3.53;;
5937;SDS011;2994;51.220;4.412;2023-05-24T13:41:36;7.00;;;3.40;;
5937;SDS011;2994;51.220;4.412;2023-05-24T13:44:01;9.47;;;4.00;;
5937;SDS011;2994;51.220;4.412;2023-05-24T13:46:27;5.80;;;3.57;;
5937;SDS011;2994;51.220;4.412;2023-05-24T13:48:54;7.03;;;3.20;;
5937;SDS011;2994;51.220;4.412;2023-05-24T13:51:22;10.37;;;3.23;;
5937;SDS011;2994;51.220;4.412;2023-05-24T13:53:51;5.50;;;2.90;;
5937;SDS011;2994;51.220;4.412;2023-05-24T13:56:19;5.20;;;3.13;;
5937;SDS011;2994;51.220;4.412;2023-05-24T13:58:48;5.00;;;2.33;;
5937;SDS011;2994;51.220;4.412;2023-05-24T14:01:14;7.50;;;3.27;;
5937;SDS011;2994;51.220;4.412;2023-05-24T14:03:39;6.83;;;3.23;;
5937;SDS011;2994;51.220;4.412;2023-05-24T14:06:05;3.40;;;2.47;;
5937;SDS011;2994;51.220;4.412;2023-05-24T14:08:31;6.20;;;3.70;;
5937;SDS011;2994;51.220;4.412;2023-05-24T14:10:57;5.40;;;3.40;;
5937;SDS011;2994;51.220;4.412;2023-05-24T14:13:23;6.10;;;3.30;;
5937;SDS011;2994;51.220;4.412;2023-05-24T14:31:19;3.47;;;2.80;;
5937;SDS011;2994;51.220;4.412;2023-05-24T14:33:47;5.47;;;3.43;;
5937;SDS011;2994;51.220;4.412;2023-05-24T14:36:13;4.90;;;2.93;;
5937;SDS011;2994;51.220;4.412;2023-05-24T14:38:38;3.80;;;2.80;;
5937;SDS011;2994;51.220;4.412;2023-05-24T14:41:12;7.00;;;3.80;;
5937;SDS011;2994;51.220;4.412;2023-05-24T14:43:46;5.50;;;3.33;;
5937;SDS011;2994;51.220;4.412;2023-05-24T14:46:15;5.47;;;3.50;;
5937;SDS011;2994;51.220;4.412;2023-05-24T14:48:56;6.03;;;2.53;;
5937;SDS011;2994;51.220;4.412;2023-05-24T14:51:21;6.80;;;3.60;;
5937;SDS011;2994;51.220;4.412;2023-05-24T14:53:47;6.93;;;3.90;;
5937;SDS011;2994;51.220;4.412;2023-05-24T14:56:13;6.63;;;3.60;;
5937;SDS011;2994;51.220;4.412;2023-05-24T14:58:41;4.00;;;2.73;;
5937;SDS011;2994;51.220;4.412;2023-05-24T15:01:07;4.57;;;3.00;;
5937;SDS011;2994;51.220;4.412;2023-05-24T15:03:33;7.80;;;4.10;;
5937;SDS011;2994;51.220;4.412;2023-05-24T15:05:59;3.23;;;2.57;;
5937;SDS011;2994;51.220;4.412;2023-05-24T15:08:25;4.17;;;2.80;;
5937;SDS011;2994;51.220;4.412;2023-05-24T15:10:50;4.97;;;3.40;;
5937;SDS011;2994;51.220;4.412;2023-05-24T15:13:16;3.50;;;2.70;;
5937;SDS011;2994;51.220;4.412;2023-05-24T15:15:42;6.47;;;3.60;;
5937;SDS011;2994;51.220;4.412;2023-05-24T15:18:08;4.40;;;3.03;;
5937;SDS011;2994;51.220;4.412;2023-05-24T15:20:33;8.00;;;3.73;;
5937;SDS011;2994;51.220;4.412;2023-05-24T15:23:00;7.10;;;3.70;;
5937;SDS011;2994;51.220;4.412;2023-05-24T15:25:26;6.03;;;3.60;;
5937;SDS011;2994;51.220;4.412;2023-05-24T15:27:51;6.10;;;2.70;;
5937;SDS011;2994;51.220;4.412;2023-05-24T15:30:17;8.50;;;3.93;;
5937;SDS011;2994;51.220;4.412;2023-05-24T15:32:43;6.87;;;3.37;;
5937;SDS011;2994;51.220;4.412;2023-05-24T15:35:12;5.97;;;3.27;;
5937;SDS011;2994;51.220;4.412;2023-05-24T15:37:38;4.60;;;3.03;;
5937;SDS011;2994;51.220;4.412;2023-05-24T15:40:05;7.77;;;4.17;;
5937;SDS011;2994;51.220;4.412;2023-05-24T15:42:32;6.47;;;4.07;;
5937;SDS011;2994;51.220;4.412;2023-05-24T15:44:58;5.60;;;3.47;;
5937;SDS011;2994;51.220;4.412;2023-05-24T15:47:23;8.40;;;4.43;;
5937;SDS011;2994;51.220;4.412;2023-05-24T15:49:53;6.80;;;4.60;;
5937;SDS011;2994;51.220;4.412;2023-05-24T15:52:18;7.03;;;4.30;;